Tiempo atmosférico en la estación meteorológica de Saelices El Chico, Salamanca (680 m.)



Fecha
DESCASC
Temp. máxima en grados centígrados (hora)
DESCASC
Temp. mínima en grados centígrados (hora)
DESCASC
Temp. media en grados centígrados
DESCASC
Racha de viento máxima en m/sg (hora)
DESCASC
Velocidad máxima media en intervalos de 10 minutos(hora)
DESCASC
Precipitaciones diarias en mm
DESCASC
Precipitaciones de 00:00 a 06:00 en mm
DESCASC
Precipitaciones de 06:00 a 12:00 en mm
DESCASC
Precipitaciones de 12:00 a 18:00 en mm
DESCASC
Precipitaciones de 18:00 a 24:00 en mm
DESCASC
25-04-2019 12.3 (16:50) 3.2 (09:30) 7.8 17.22 (19:00) 9.17 (19:00) 4.8 0.2 2.8 1.6 0.2
24-04-2019 14.4 (13:30) 4 (06:30) 9.2 20.56 (13:40) 10 (13:30) 7.4 1.6 2.2 3 0.6
23-04-2019 12.3 (00:00) 4.5 (08:30) 8.4 15.56 (16:30) 8.61 (16:30) 7 6.2 0.2 0.6 0
22-04-2019 19.2 (15:10) 4.2 (00:00) 11.7 12.22 (20:40) 6.39 (20:40) 0 0 0 0 0
21-04-2019 18.1 (17:40) 6.8 (00:00) 12.5 14.72 (16:40) 9.44 (16:50) 0 0 0 0 0
20-04-2019 21.5 (16:40) 9.9 (00:00) 15.7 17.22 (14:00) 11.11 (14:00) 0 0 0 0 0
19-04-2019 16.2 (18:00) 8 (00:00) 12.1 12.78 (21:10) 8.33 (21:00) 2 1.6 0.2 0.2 0
18-04-2019 15.6 (15:50) 7.3 (00:00) 11.5 7.22 (16:30) 4.17 (12:30) 10.8 1.2 0 4 5.6
17-04-2019 18.3 (15:40) 8.8 (00:00) 13.5 20.28 (16:00) 10.56 (15:30) 8.6 0 0 0.8 7.8
16-04-2019 19.1 (17:20) 1.7 (00:00) 10.4 10.56 (14:50) 6.39 (14:10) 0 0 0 0 0
15-04-2019 18.9 (13:40) 8.2 (00:00) 13.5 15 (14:30) 8.33 (14:20) 8.4 0 0 1.2 7.2
14-04-2019 20.9 (19:30) 11.1 (00:00) 16 5.28 (14:30) 3.06 (19:40) 0 0 0 0 0
13-04-2019 22.6 (17:10) 4.7 (00:00) 13.7 10.28 (18:10) 5.56 (18:10) 0 0 0 0 0
12-04-2019 18.5 (18:30) 0.7 (00:00) 9.6 8.06 (17:40) 3.61 (17:20) 0 0 0 0 0
11-04-2019 19.3 (13:10) 1.8 (00:00) 10.5 8.89 (15:10) 5 (18:00) 0 0 0 0 0
10-04-2019 15.1 (17:20) 5.3 (00:00) 10.2 13.33 (18:10) 6.67 (17:40) 0.6 0 0 0 0.6
09-04-2019 13.6 (17:10) 3.7 (00:00) 8.7 14.44 (18:00) 8.33 (19:20) 5.2 0 4 1 0.2
08-04-2019 14.8 (15:10) 5.8 (00:00) 10.3 13.33 (16:40) 7.5 (16:40) 4.4 2.8 0.2 0.4 1
07-04-2019 10.7 (14:20) 4.5 (00:00) 7.6 10 (14:20) 6.11 (14:10) 1.4 0 0.4 0.8 0.2
06-04-2019 9.6 (14:50) 1.4 (00:00) 5.5 17.78 (17:30) 10.28 (17:20) 3.4 0 2.4 1 0
05-04-2019 11.1 (16:30) 2.6 (00:00) 6.9 14.17 (19:20) 7.78 (19:30) 2.4 1.2 0 1.2 0
04-04-2019 14.3 (16:30) -2.9 (-00:0) 5.7 10.56 (17:50) 5.83 (17:00) 1.4 0 0 0 1.4
03-04-2019 12.7 (16:30) 3.7 (06:20) 8.2 16.67 (17:00) 8.06 (19:10) 0 0 0 0 0
02-04-2019 19.3 (15:50) 6.6 (00:00) 12.9 10.28 (16:20) 5 (19:50) 0 0 0 0 0
01-04-2019 18 (16:10) 5 (00:00) 11.5 11.11 (16:10) 6.11 (16:20) 0 0 0 0 0
31-03-2019 20.2 (15:20) 1.8 (00:00) 11 13.06 (16:10) 7.5 (16:20) 0 0 0 0 0
30-03-2019 21.3 (15:20) 0.4 (00:00) 10.8 7.5 (20:30) 4.44 (16:40) 0 0 0 0 0
29-03-2019 19.9 (15:30) -0.8 (-00:0) 9.5 7.5 (12:30) 4.17 (16:20) 0 0 0 0 0
28-03-2019 19.5 (16:00) 2 (00:00) 10.8 10 (03:10) 6.39 (03:20) 0 0 0 0 0
27-03-2019 18.8 (16:10) 2.9 (00:00) 10.8 13.89 (02:10) 8.61 (02:10) 0 0 0 0 0

Gráficas

Temp. máximas Temp. mínimas Temp. medias Precipitaciones Rachas de viento máximas Velocidades máximas media en intervalos de 10 minutos

Datos horarios

Fecha y hora oficial Temperatura (ºC) Velocidad del viento (km/h) Dirección del viento Racha (km/h) Dirección de racha Precipitación (mm) Presión (hPa) Tendencia (hPa) Humedad (%)
2019-04-25 23:00:00 7.8 9 Oeste 19 Oeste 0 939.7 2.8 80
2019-04-25 22:00:00 7.6 8 Oeste 24 Oeste 0 938.6 2.1 78
2019-04-25 21:00:00 8 14 Oeste 46 Oeste 0 937.8 2.9 74
2019-04-25 20:00:00 8.6 24 Oeste 61 Oeste 0 936.9 2.2 67
2019-04-25 19:00:00 8.6 33 Oeste 62 Oeste 0.2 936.5 2.7 74
2019-04-25 18:00:00 11.6 22 Oeste 48 Oeste 0 934.9 1.4 53
2019-04-25 17:00:00 11.1 27 Oeste 62 Oeste 0.2 934.7 1.5 59
2019-04-25 16:00:00 10.8 18 Oeste 56 Oeste 0.2 933.8 0.2 63
2019-04-25 15:00:00 10.3 24 Sudoeste 50 Sudoeste 0.2 933.5 0.9 65
2019-04-25 14:00:00 10.6 16 Oeste 32 Oeste 0 933.2 1.3 71
2019-04-25 13:00:00 7.5 19 Oeste 43 Oeste 1 933.6 2.1 81
2019-04-25 12:00:00 6.8 16 Noroeste 37 Noroeste 0.4 932.6 1.6 80
2019-04-25 11:00:00 7.8 12 Sur 26 Sur 0 931.9 2.4 81
2019-04-25 10:00:00 3.7 6 Sudoeste 31 Noroeste 1 931.5 2.6 88
2019-04-25 09:00:00 3.7 19 Noroeste 36 Noroeste 1.4 931 2.2 87
2019-04-25 08:00:00 4.5 10 Sur 42 Sudoeste 0 929.5 1.2 85
2019-04-25 07:00:00 5.1 16 Sudoeste 37 Sudoeste 0 928.9 1 79
2019-04-25 06:00:00 5.1 21 Sudoeste 53 Sudoeste 0.2 928.8 1 79
2019-04-25 05:00:00 6.2 16 Sudoeste 34 Sudoeste 0 928.3 0.7 79
2019-04-25 04:00:00 6.5 15 Sudoeste 30 Sudoeste 0 927.9 1.2 80
2019-04-25 03:00:00 6.2 10 Sudoeste 23 Sur 0 927.8 1.4 81
2019-04-25 02:00:00 6.5 9 Sur 17 Sur 0 927.6 1.9 82
2019-04-25 01:00:00 6.6 10 Sur 25 Sudoeste 0 926.7 1.9 83
2019-04-25 00:00:00 7.5 12 Sudoeste 40 Sudoeste 0 926.4 2 84
2019-04-24 23:00:00 8 18 Sudoeste 40 Sudoeste 0.2 925.7 1.9 83
2019-04-24 22:00:00 8.7 18 Sudoeste 39 Oeste 0.4 924.8 1.1 81
2019-04-24 21:00:00 9.8 22 Sudoeste 41 Sudoeste 0 924.4 1.1 78
2019-04-24 20:00:00 10.8 22 Sudoeste 61 Sudoeste 0 923.8 1 69
2019-04-24 19:00:00 11.5 31 Sudoeste 57 Sudoeste 0 923.7 0.9 65
2019-04-24 18:00:00 11 30 Sudoeste 61 Sudoeste 0 923.3 1 64
2019-04-24 17:00:00 12.3 33 Sudoeste 63 Sudoeste 0 922.8 0.5 64
2019-04-24 16:00:00 10.8 29 Sudoeste 72 Sudoeste 1.8 922.8 0.3 75
2019-04-24 15:00:00 11.1 22 Sudoeste 50 Sudoeste 1.2 922.3 0.2 83
2019-04-24 14:00:00 13.3 25 Sudoeste 74 Sudoeste 0 922.3 0.8 61
2019-04-24 13:00:00 13.2 30 Sudoeste 59 Sudoeste 0 922.5 1.1 69
2019-04-24 12:00:00 12 26 Sur 55 Sudoeste 0 922.1 1.1 74
2019-04-24 11:00:00 11 23 Sur 44 Sudoeste 0 921.5 1.1 76
2019-04-24 10:00:00 8.6 21 Sur 44 Sur 0.2 921.4 1 85
2019-04-24 09:00:00 6.7 15 Sur 42 Sur 0.6 921 -0.6 86
2019-04-24 08:00:00 5.7 22 Sur 42 Sur 1 920.4 -2.1 87
2019-04-24 07:00:00 4.3 19 Sur 42 Sur 0.4 920.4 -2.8 87
2019-04-24 06:00:00 4.5 22 Sur 38 Sur 1.2 921.6 -2.6 86
2019-04-24 05:00:00 4.8 15 Sur 32 Sur 0.2 922.5 -2.1 84
2019-04-24 04:00:00 4.8 11 Sur 30 Sur 0.2 923.2 -1.7 82
2019-04-24 03:00:00 5.2 13 Sur 24 Sur 0 924.2 -0.5 78
2019-04-24 02:00:00 4.1 5 Sudeste 13 Sur 0 924.6 0.2 81
2019-04-24 01:00:00 4.2 6 Sur 21 Sudoeste 0 924.9 1.2 80
2019-04-24 00:00:00 4.8 10 Sudoeste 18 Sudoeste 0 924.7 1.7 76
2019-04-23 23:00:00 5.3 8 Sudoeste 21 Sudoeste 0 924.4 2.1 71
2019-04-23 22:00:00 5.8 10 Sudoeste 19 Sudoeste 0 923.7 1.7 67
2019-04-23 21:00:00 6.4 10 Oeste 36 Oeste 0 923 1.6 63
2019-04-23 20:00:00 8.2 16 Oeste 40 Oeste 0 922.3 1.2 60
2019-04-23 19:00:00 8 27 Oeste 47 Oeste 0 922 2 64
2019-04-23 18:00:00 8.8 26 Oeste 46 Oeste 0 921.4 1.6 61
2019-04-23 17:00:00 8.5 26 Oeste 56 Oeste 0 921.1 1.5 70
2019-04-23 16:00:00 11.7 23 Oeste 46 Oeste 0 920 0.1 52
2019-04-23 15:00:00 10.6 22 Oeste 43 Oeste 0 919.8 0.2 61
2019-04-23 14:00:00 7.8 13 Oeste 38 Oeste 0.4 919.6 0.2 82
2019-04-23 13:00:00 7.4 19 Sudoeste 40 Sudoeste 0.2 919.9 0.6 76
2019-04-23 12:00:00 9.2 13 Sudoeste 33 Oeste 0 919.6 0.6 68
2019-04-23 11:00:00 8 18 Sur 30 Sur 0.2 919.4 0.6 71
2019-04-23 10:00:00 7 6 Sur 16 Sudoeste 0 919.3 0.9 75
2019-04-23 09:00:00 5.6 7 Sur 20 Sudoeste 0 919 0.5 82
2019-04-23 08:00:00 5.1 10 Sudoeste 19 Sudoeste 0 918.8 0.1 85
2019-04-23 07:00:00 5.2 8 Sudoeste 15 Sudoeste 0 918.4 -0.2 82
2019-04-23 06:00:00 5.6 6 Oeste 27 Oeste 0.8 918.5 -0.9 85
2019-04-23 05:00:00 6.5 0 Calma 11 Norte 0.2 918.7 -1.7 89
2019-04-23 04:00:00 6.2 8 Norte 15 Noroeste 1.8 918.6 -0.9 89
2019-04-23 03:00:00 6.4 10 Noroeste 19 Oeste 1.2 919.4 0 88
2019-04-23 02:00:00 7.4 10 Oeste 39 Oeste 2.2 920.4 0.4 84
2019-04-23 01:00:00 10.8 20 Sur 34 Sur 0 919.5 -0.6 68
2019-04-23 00:00:00 12.3 14 Sur 33 Sur 0 919.4 -0.7 57
2019-04-22 23:00:00 12.6 12 Sudoeste 28 Sudoeste 0 920 -0.4 54
2019-04-22 22:00:00 13.3 12 Sudoeste 23 Sudoeste 0 920.1 -0.7 60
2019-04-22 21:00:00 13.7 12 Sudoeste 44 Sur 0 920.1 -1.1 60
2019-04-22 20:00:00 15.7 18 Sudoeste 32 Sudoeste 0 920.4 -1.2 52
2019-04-22 19:00:00 16.7 18 Sudoeste 35 Sudoeste 0 920.8 -1.6 46
2019-04-22 18:00:00 17.5 19 Oeste 34 Sur 0 921.2 -1.8 42
2019-04-22 17:00:00 17.7 18 Sur 33 Sur 0 921.6 -2.4 39
2019-04-22 16:00:00 18.5 16 Sudoeste 31 Sur 0 922.4 -2.6 34
2019-04-22 15:00:00 18.5 19 Sudoeste 34 Sudoeste 0 923 -2.8 38
2019-04-22 14:00:00 18.2 9 Oeste 22 Sudoeste 0 924 -2.4 42
2019-04-22 13:00:00 17.3 11 Sudoeste 23 Sudoeste 0 925 -1.7 44
2019-04-22 12:00:00 15.2 9 Sudeste 23 Sudeste 0 925.8 -1.1 53
2019-04-22 11:00:00 13.3 4 Sudoeste 11 Este 0 926.4 -0.3 58
2019-04-22 10:00:00 9.5 6 Este 13 Este 0 926.7 0.1 79
2019-04-22 09:00:00 6.4 7 Este 10 Este 0 926.9 -0.2 88
2019-04-22 08:00:00 4.3 5 Sudeste 9 Este 0 926.7 -1.1 89
2019-04-22 07:00:00 5.3 6 Sudeste 8 Este 0 926.6 -1.8 87
2019-04-22 06:00:00 6.4 6 Este 12 Este 0 927.1 -2.1 87
2019-04-22 05:00:00 7.3 3 Este 7 Sudeste 0 927.8 -2.3 84
2019-04-22 04:00:00 9 3 Este 5 Este 0 928.4 -1.9 81
2019-04-22 03:00:00 9.9 2 Nordeste 8 Oeste 0 929.2 -1.6 81
2019-04-22 02:00:00 10.5 6 Oeste 8 Oeste 0 930.1 -1 77
2019-04-22 01:00:00 10.9 2 Sudoeste 10 Norte 0 930.3 -0.7 73
2019-04-22 00:00:00 11.4 9 Norte 15 Norte 0 930.8 -0.2 68
2019-04-21 23:00:00 10.7 10 Norte 14 Norte 0 931.1 0.7 73
2019-04-21 22:00:00 11.5 9 Norte 22 Norte 0 931 0.6 70
2019-04-21 21:00:00 12.8 16 Norte 45 Norte 0 931 0.1 64
2019-04-21 20:00:00 16.3 20 Nordeste 38 Nordeste 0 930.4 -1.1 42
2019-04-21 19:00:00 17 21 Nordeste 40 Nordeste 0 930.4 -1.8 36
2019-04-21 18:00:00 17.5 22 Nordeste 42 Nordeste 0 930.9 -1.9 35
2019-04-21 17:00:00 17.5 30 Nordeste 53 Este 0 931.5 -2.1 37
2019-04-21 16:00:00 17.3 30 Nordeste 47 Nordeste 0 932.2 -2.2 39
2019-04-21 15:00:00 16.8 30 Nordeste 47 Nordeste 0 932.8 -1.8 39
2019-04-21 14:00:00 16 28 Nordeste 46 Nordeste 0 933.6 -1.3 42
2019-04-21 13:00:00 14.6 24 Nordeste 42 Este 0 934.4 -0.8 47
2019-04-21 12:00:00 14 25 Nordeste 45 Nordeste 0 934.6 -1.1 50
2019-04-21 11:00:00 13.3 27 Nordeste 45 Nordeste 0 934.9 -0.3 56
2019-04-21 10:00:00 11.9 4 Nordeste 22 Nordeste 0 935.2 -0.2 64
2019-04-21 09:00:00 9.5 3 Sudeste 17 Nordeste 0 935.7 0.1 74
2019-04-21 08:00:00 7 2 Este 8 Norte 0 935.2 -0.7 82
2019-04-21 07:00:00 6.9 5 Sur 14 Norte 0 935.4 -0.8 80
2019-04-21 06:00:00 7.5 9 Norte 17 Norte 0 935.6 -1.2 77
2019-04-21 05:00:00 8.8 8 Norte 14 Nordeste 0 935.9 -1.3 71
2019-04-21 04:00:00 10.1 9 Norte 15 Nordeste 0 936.2 -0.9 65
2019-04-21 03:00:00 12.3 13 Nordeste 27 Nordeste 0 936.8 0 58
2019-04-21 02:00:00 12.7 8 Sudeste 32 Este 0 937.2 0.3 53
2019-04-21 01:00:00 13.1 9 Sudeste 36 Nordeste 0 937.1 0.6 51
2019-04-21 00:00:00 14.6 24 Nordeste 40 Nordeste 0 936.8 0.6 46
2019-04-20 23:00:00 16.3 26 Nordeste 36 Nordeste 0 936.9 0.6 40
2019-04-20 22:00:00 17.2 24 Nordeste 31 Nordeste 0 936.5 0.1 38
2019-04-20 21:00:00 18.6 23 Nordeste 38 Nordeste 0 936.2 -0.5 33
2019-04-20 20:00:00 20.2 23 Nordeste 40 Nordeste 0 936.3 -0.8 32
2019-04-20 19:00:00 21 27 Nordeste 44 Nordeste 0 936.4 -1.3 30
2019-04-20 18:00:00 21.3 27 Nordeste 44 Nordeste 0 936.7 -1.6 30
2019-04-20 17:00:00 21.2 26 Nordeste 54 Nordeste 0 937.1 -1.5 31
2019-04-20 16:00:00 21.4 32 Nordeste 58 Nordeste 0 937.7 -1.6 29
2019-04-20 15:00:00 20.3 26 Nordeste 50 Nordeste 0 938.3 -1.4 34
2019-04-20 14:00:00 19.1 40 Nordeste 62 Nordeste 0 938.6 -1.2 42
2019-04-20 13:00:00 18.2 24 Nordeste 44 Nordeste 0 939.3 -0.5 43
2019-04-20 12:00:00 16.2 24 Nordeste 40 Nordeste 0 939.7 -0.2 50
2019-04-20 11:00:00 14.3 14 Este 39 Este 0 939.8 0.1 55
2019-04-20 10:00:00 13.4 12 Nordeste 23 Este 0 939.8 0.5 56
2019-04-20 09:00:00 11.2 14 Nordeste 27 Nordeste 0 939.9 1.1 63
2019-04-20 08:00:00 10 14 Nordeste 33 Nordeste 0 939.7 0.3 67
2019-04-20 07:00:00 10.3 19 Nordeste 36 Norte 0 939.3 -0.4 67
2019-04-20 06:00:00 11.1 24 Nordeste 44 Nordeste 0 938.8 -0.8 64
2019-04-20 05:00:00 11.1 24 Nordeste 42 Nordeste 0 939.4 -0.6 66
2019-04-20 04:00:00 11 18 Nordeste 40 Nordeste 0 939.7 0.4 68
2019-04-20 03:00:00 11.6 12 Nordeste 26 Nordeste 0 939.6 0.1 70
2019-04-20 02:00:00 11.1 8 Oeste 33 Este 0 940 0.6 75
2019-04-20 01:00:00 11.8 17 Nordeste 36 Este 0 939.3 0.2 74
2019-04-20 00:00:00 12.4 11 Nordeste 35 Nordeste 0 939.5 1.2 72
2019-04-19 23:00:00 12.7 24 Nordeste 45 Nordeste 0 939.4 1.9 71
2019-04-19 22:00:00 12.7 22 Nordeste 46 Nordeste 0 939.1 2 70
2019-04-19 21:00:00 13.7 30 Nordeste 42 Nordeste 0 938.3 1.5 64
2019-04-19 20:00:00 14.8 21 Nordeste 35 Nordeste 0 937.5 0.6 55
2019-04-19 19:00:00 15.7 16 Este 39 Nordeste 0 937.1 0.1 49
2019-04-19 18:00:00 16 23 Este 35 Este 0 936.8 -0.1 48
2019-04-19 17:00:00 15.5 22 Nordeste 40 Este 0 936.9 0.1 54
2019-04-19 16:00:00 14.3 24 Este 40 Este 0.2 937 -0.1 62
2019-04-19 15:00:00 13.9 28 Nordeste 41 Nordeste 0 936.9 0 64
2019-04-19 14:00:00 13.5 5 Sudoeste 12 Oeste 0 936.8 0.7 66
2019-04-19 13:00:00 12.3 8 Sudoeste 14 Sudoeste 0 937.1 1.4 72
2019-04-19 12:00:00 12 12 Nordeste 18 Este 0 936.9 1.8 70
2019-04-19 11:00:00 12.1 6 Sudeste 17 Sudeste 0 936.1 1.6 69
2019-04-19 10:00:00 11 9 Sudeste 15 Este 0 935.7 1.6 82
2019-04-19 09:00:00 8.8 4 Sudeste 8 Sudeste 0 935.1 1.1 90
2019-04-19 08:00:00 8.2 3 Sudoeste 7 Sur 0.2 934.5 0.3 91
2019-04-19 07:00:00 8.1 4 Sur 6 Sur 0 934.1 -0.3 91
2019-04-19 06:00:00 8.1 2 Sudoeste 5 Sudoeste 0 934 -0.9 90
2019-04-19 05:00:00 8.1 2 Oeste 6 Oeste 0 934.2 -1.4 90
2019-04-19 04:00:00 8.2 5 Oeste 10 Oeste 0 934.4 -1.2 90
2019-04-19 03:00:00 8.4 5 Oeste 13 Noroeste 1.2 934.9 -0.7 90
2019-04-19 02:00:00 8.5 7 Noroeste 12 Noroeste 0.4 935.6 0.5 90
2019-04-19 01:00:00 8.6 8 Norte 15 Norte 0 935.6 0.8 90
2019-04-19 00:00:00 8.7 9 Norte 17 Norte 0 935.6 1.5 90
2019-04-18 23:00:00 9.1 6 Sudoeste 19 Este 4 935.1 1.3 87
2019-04-18 22:00:00 10 10 Sudeste 18 Este 0.4 934.8 1.4 85
2019-04-18 21:00:00 10.9 3 Norte 17 Sudoeste 0.6 934.1 0.8 79
2019-04-18 20:00:00 12.4 8 Sur 17 Sudeste 0.4 933.8 0.6 68
2019-04-18 19:00:00 11.6 9 Sur 19 Sudoeste 0.2 933.4 0.2 72
2019-04-18 18:00:00 11.3 10 Sudoeste 19 Sudoeste 0 933.3 -0.2 79
2019-04-18 17:00:00 11.6 9 Oeste 26 Sudeste 1.4 933.2 -0.7 73
2019-04-18 16:00:00 14.7 8 Nordeste 16 Oeste 0 933.2 -1.1 56
2019-04-18 15:00:00 13.3 3 Noroeste 7 Noroeste 0.6 933.5 -0.8 62
2019-04-18 14:00:00 10.6 8 Sur 21 Oeste 1.8 933.9 -0.4 73
2019-04-18 13:00:00 11.5 10 Nordeste 21 Nordeste 0.2 934.3 0.2 70
2019-04-18 12:00:00 10.9 10 Este 15 Este 0 934.3 0.3 75
2019-04-18 11:00:00 11.4 8 Sur 18 Sudeste 0 934.3 0.7 73
2019-04-18 10:00:00 11.2 6 Sur 12 Sudeste 0 934.1 0.9 82
2019-04-18 09:00:00 8.5 8 Sudeste 12 Sudeste 0 934 1 90
2019-04-18 08:00:00 7.8 6 Sudeste 9 Sudeste 0 933.6 0.6 91
2019-04-18 07:00:00 8 4 Este 8 Este 0 933.2 0.5 91
2019-04-18 06:00:00 7.7 5 Sudeste 13 Sudeste 0 933 -0.3 91
2019-04-18 05:00:00 7.3 6 Sudeste 17 Sur 0 933 -0.4 89
2019-04-18 04:00:00 7.6 10 Sudeste 15 Sudeste 0 932.7 -0.3 89
2019-04-18 03:00:00 8.3 6 Sur 17 Sur 0.2 933.3 0.8 89
2019-04-18 02:00:00 8.8 6 Sudeste 12 Sur 0.2 933.4 1.3 90
2019-04-18 01:00:00 8.8 9 Sur 16 Sur 0.8 933 1.6 89
2019-04-18 00:00:00 8.8 8 Sudeste 18 Sur 0.2 932.5 1.9 89
2019-04-17 23:00:00 9 12 Sur 19 Sur 0.2 932.1 1.5 89
2019-04-17 22:00:00 9.3 11 Sur 22 Sur 0 931.4 1.5 88
2019-04-17 21:00:00 9.6 12 Sudeste 20 Sudeste 1.4 930.6 1.2 88
2019-04-17 20:00:00 9.8 14 Sudeste 23 Sudeste 1.4 930.6 2.5 89
2019-04-17 19:00:00 9.9 8 Sur 39 Sudoeste 4.6 929.9 1.4 87
2019-04-17 18:00:00 11.8 20 Sudoeste 55 Sur 0.8 929.4 0.5 85
2019-04-17 17:00:00 16.7 33 Sudeste 63 Sur 0 928.1 -1.6 45
2019-04-17 16:00:00 18 37 Sudeste 73 Sudeste 0 928.5 -2.3 44
2019-04-17 15:00:00 17.7 30 Sur 64 Sur 0 928.9 -2.4 45
2019-04-17 14:00:00 16.4 32 Sur 61 Sur 0 929.7 -1.7 50
2019-04-17 13:00:00 14.2 22 Sur 44 Sur 0 930.8 -0.3 53
2019-04-17 12:00:00 13 22 Sur 48 Sur 0 931.3 0.6 58
2019-04-17 11:00:00 12.1 22 Sur 42 Sur 0 931.4 0.9 59
2019-04-17 10:00:00 11.7 21 Sur 42 Sur 0 931.1 0.5 62
2019-04-17 09:00:00 11.5 25 Sur 51 Sur 0 930.7 -0.1 62
2019-04-17 08:00:00 10.1 14 Sur 27 Sudeste 0 930.5 -0.4 66
2019-04-17 07:00:00 9.9 8 Sudoeste 18 Sur 0 930.6 -0.9 64
2019-04-17 06:00:00 10.8 8 Sur 30 Sudeste 0 930.8 -0.7 58
2019-04-17 05:00:00 11.4 10 Sudeste 26 Sudeste 0 930.9 -1.1 53
2019-04-17 04:00:00 12.6 17 Sur 35 Sudeste 0 931.5 -0.6 49
2019-04-17 03:00:00 13.1 19 Sur 31 Sur 0 931.5 -1.4 51
2019-04-17 02:00:00 14.8 19 Sur 36 Sur 0 932 -1.5 45
2019-04-17 01:00:00 13.2 10 Sudeste 17 Este 0 932.1 -1.6 51
2019-04-17 00:00:00 12.9 10 Sudeste 16 Sudeste 0 932.9 -1.1 54
2019-04-16 23:00:00 12.5 9 Este 17 Sudeste 0 933.5 -0.9 58
2019-04-16 22:00:00 13.4 8 Este 14 Sudeste 0 933.7 -0.8 59
2019-04-16 21:00:00 15.6 9 Sudeste 18 Sudeste 0 934 -1.1 48
2019-04-16 20:00:00 17 14 Sudeste 32 Sudeste 0 934.4 -1.4 43
2019-04-16 19:00:00 18.5 18 Sudeste 33 Sur 0 934.5 -1.9 38
2019-04-16 18:00:00 18.8 18 Sur 34 Sur 0 935.1 -2 33
2019-04-16 17:00:00 18.7 19 Sur 37 Sur 0 935.8 -2.1 33
2019-04-16 16:00:00 17.7 23 Sur 35 Sur 0 936.4 -2 33
2019-04-16 15:00:00 17.8 19 Sur 38 Sudeste 0 937.1 -1.8 33
2019-04-16 14:00:00 17.4 20 Sur 37 Sudeste 0 937.9 -1.1 35
2019-04-16 13:00:00 16 11 Sur 24 Sur 0 938.4 -0.8 49
2019-04-16 12:00:00 12.4 5 Nordeste 11 Nordeste 0 938.9 -0.5 68
2019-04-16 11:00:00 8.3 2 Este 9 Este 0 939 -0.1 92
2019-04-16 10:00:00 4.7 0 Calma 8 Este 0 939.2 0 92
2019-04-16 09:00:00 2.5 2 Este 5 Oeste 0 939.4 -0.1 92
2019-04-16 08:00:00 1.7 2 Nordeste 9 Sur 0 939.1 -0.6 92
2019-04-16 07:00:00 2.7 6 Este 9 Este 0 939.2 -0.6 92
2019-04-16 06:00:00 2.8 7 Sudeste 9 Sudeste 0 939.5 -0.7 91
2019-04-16 05:00:00 3.7 4 Este 7 Nordeste 0 939.7 -0.2 91
2019-04-16 04:00:00 4.2 6 Sudeste 11 Sudeste 0 939.8 0.3 90
2019-04-16 03:00:00 4.7 0 Calma 8 Sudeste 0 940.2 0.8 88
2019-04-16 02:00:00 5.9 2 Sur 11 Este 0 939.9 0.9 87
2019-04-16 01:00:00 6.9 3 Noroeste 14 Este 0 939.5 1.2 85
2019-04-16 00:00:00 8.2 4 Noroeste 21 Noroeste 0 939.4 2.5 80
2019-04-15 23:00:00 9.6 12 Oeste 22 Oeste 0 939 2.8 76
2019-04-15 22:00:00 10.2 11 Oeste 35 Oeste 0 938.3 2.4 73
2019-04-15 21:00:00 11.4 15 Oeste 41 Noroeste 0 936.9 1.4 70
2019-04-15 20:00:00 12.8 18 Oeste 39 Noroeste 0 936.2 0.9 65
2019-04-15 19:00:00 13 8 Oeste 14 Sudoeste 7.2 935.9 0.7 79
2019-04-15 18:00:00 11.9 8 Sudeste 16 Sudeste 0.2 935.5 0.3 77
2019-04-15 17:00:00 11.5 6 Este 10 Este 0.2 935.3 1.2 79
2019-04-15 16:00:00 10.6 3 Noroeste 40 Oeste 0.8 935.2 1.4 83
2019-04-15 15:00:00 12 25 Oeste 54 Noroeste 0 935.2 1.5 62
2019-04-15 14:00:00 16.2 28 Noroeste 48 Oeste 0 934.1 0.8 52
2019-04-15 13:00:00 17.6 24 Sur 48 Sudoeste 0 933.8 0.3 40
2019-04-15 12:00:00 16.8 21 Sudoeste 40 Sudoeste 0 933.7 0.5 52
2019-04-15 11:00:00 17.4 17 Sudoeste 30 Sur 0 933.3 0.3 65
2019-04-15 10:00:00 15.6 13 Sur 33 Sudoeste 0 933.5 0.8 71
2019-04-15 09:00:00 14.2 10 Sur 22 Sur 0 933.2 -0.3 75
2019-04-15 08:00:00 12.7 10 Sur 16 Sudoeste 0 933 -1.1 82
2019-04-15 07:00:00 12.3 5 Sudeste 8 Sudeste 0 932.7 -2.3 83
2019-04-15 06:00:00 12.1 4 Sudeste 9 Sudeste 0 933.5 -2.2 84
2019-04-15 05:00:00 12 6 Este 10 Este 0 934.1 -2.2 84
2019-04-15 04:00:00 12.1 6 Sudeste 9 Sudeste 0 935 -1.5 84
2019-04-15 03:00:00 12 6 Este 9 Este 0 935.7 -1.2 83
2019-04-15 02:00:00 12.5 6 Sudeste 9 Sur 0 936.3 -0.6 81
2019-04-15 01:00:00 12.5 6 Sudeste 10 Sudeste 0 936.5 -0.3 82
2019-04-15 00:00:00 13.8 4 Sudeste 9 Sudeste 0 936.9 0.4 78
2019-04-14 23:00:00 15.4 6 Este 9 Sur 0 936.9 0.3 71
2019-04-14 22:00:00 17.3 7 Sur 19 Sudoeste 0 936.8 -0.2 62
2019-04-14 21:00:00 18.4 8 Sur 12 Sur 0 936.5 -0.8 57
2019-04-14 20:00:00 19.6 7 Sudeste 17 Sur 0 936.6 -1.2 51
2019-04-14 19:00:00 20.1 5 Oeste 15 Sudoeste 0 937 -1.6 47
2019-04-14 18:00:00 20.3 7 Sur 18 Sudoeste 0 937.3 -1.6 48
2019-04-14 17:00:00 20.1 8 Sudoeste 17 Sudoeste 0 937.8 -1.3 49
2019-04-14 16:00:00 19.8 7 Sudoeste 18 Sudoeste 0 938.6 -1.1 50
2019-04-14 15:00:00 19.3 5 Sudoeste 19 Sudoeste 0 938.9 -1.2 52
2019-04-14 14:00:00 20.1 5 Sur 17 Sudeste 0 939.1 -1.1 50
2019-04-14 13:00:00 18.2 6 Este 16 Este 0 939.7 -0.2 60
2019-04-14 12:00:00 15.8 3 Sur 11 Sur 0 940.1 0.4 70
2019-04-14 11:00:00 14.2 5 Sur 10 Sudeste 0 940.2 0.7 76
2019-04-14 10:00:00 13 3 Sudoeste 7 Este 0 939.9 0.4 80
2019-04-14 09:00:00 11.8 4 Sudeste 7 Este 0 939.7 0.1 88
2019-04-14 08:00:00 11.3 5 Sudeste 7 Sudeste 0 939.5 -0.5 88
2019-04-14 07:00:00 11.4 4 Este 6 Sudeste 0 939.5 -0.8 88
2019-04-14 06:00:00 11.2 3 Este 5 Sudeste 0 939.6 -0.9 87
2019-04-14 05:00:00 11.3 3 Sur 7 Este 0 940 -1 86
2019-04-14 04:00:00 12.1 5 Oeste 10 Oeste 0 940.3 -0.6 83
2019-04-14 03:00:00 12.7 5 Oeste 14 Oeste 0 940.5 -0.5 82
2019-04-14 02:00:00 12.8 5 Noroeste 12 Oeste 0 941 -0.1 83
2019-04-14 01:00:00 13 9 Noroeste 19 Noroeste 0 940.9 0.3 81
2019-04-14 00:00:00 13.6 6 Noroeste 20 Noroeste 0 941 1 77
2019-04-13 23:00:00 14 8 Noroeste 17 Noroeste 0 941.1 1.4 70
2019-04-13 22:00:00 14.4 9 Noroeste 19 Noroeste 0 940.6 1.5 64
2019-04-13 21:00:00 15.2 10 Noroeste 27 Noroeste 0 940 1.1 57
2019-04-13 20:00:00 16.9 17 Noroeste 34 Noroeste 0 939.7 0.9 48
2019-04-13 19:00:00 19.3 13 Oeste 37 Noroeste 0 939.1 -0.2 37
2019-04-13 18:00:00 20.3 16 Oeste 29 Sudoeste 0 938.9 -0.8 31
2019-04-13 17:00:00 22.3 9 Oeste 30 Oeste 0 938.8 -1.2 24
2019-04-13 16:00:00 22.2 12 Sudoeste 27 Sudoeste 0 939.3 -1.2 26
2019-04-13 15:00:00 20.9 12 Sudoeste 25 Sudoeste 0 939.7 -1.1 27
2019-04-13 14:00:00 19.9 9 Oeste 18 Sudoeste 0 940 -0.9 27
2019-04-13 13:00:00 18.4 9 Sur 20 Sur 0 940.5 -0.4 27
2019-04-13 12:00:00 16.1 6 Sudeste 14 Este 0 940.8 -0.1 48
2019-04-13 11:00:00 14.1 4 Nordeste 10 Sudeste 0 940.9 0.3 54
2019-04-13 10:00:00 9.8 3 Sudeste 8 Este 0 940.9 0.7 68
2019-04-13 09:00:00 6.8 3 Sudeste 9 Este 0 940.9 0.8 74
2019-04-13 08:00:00 5.4 3 Este 9 Este 0 940.6 0.5 80
2019-04-13 07:00:00 4.8 6 Este 10 Este 0 940.2 0.1 82
2019-04-13 06:00:00 5.2 5 Sudeste 8 Sudeste 0 940.1 -0.4 78
2019-04-13 05:00:00 5.4 6 Este 10 Este 0 940.1 -0.5 77
2019-04-13 04:00:00 4.8 9 Este 12 Este 0 940.1 -0.4 80
2019-04-13 03:00:00 5.4 4 Este 10 Sudeste 0 940.5 0.4 75
2019-04-13 02:00:00 6.3 5 Sudeste 9 Nordeste 0 940.6 0.5 67
2019-04-13 01:00:00 7.4 4 Norte 21 Oeste 0 940.5 0.9 61
2019-04-13 00:00:00 8.7 5 Sudeste 8 Sudeste 0 940.1 1 50
2019-04-12 23:00:00 9.9 6 Nordeste 11 Nordeste 0 940.1 1.1 49
2019-04-12 22:00:00 11.2 4 Nordeste 13 Nordeste 0 939.6 0.6 50
2019-04-12 21:00:00 14.4 6 Norte 19 Noroeste 0 939.1 0 33
2019-04-12 20:00:00 16.9 8 Noroeste 19 Norte 0 939 -0.3 30
2019-04-12 19:00:00 17.9 10 Oeste 24 Norte 0 939 -1 29
2019-04-12 18:00:00 18 7 Noroeste 29 Norte 0 939.1 -1.3 30
2019-04-12 17:00:00 17.8 11 Noroeste 27 Norte 0 939.3 -1.4 31
2019-04-12 16:00:00 17.6 7 Noroeste 22 Norte 0 940 -1.2 33
2019-04-12 15:00:00 15.5 11 Norte 22 Norte 0 940.4 -1 37
2019-04-12 14:00:00 15.7 10 Nordeste 23 Norte 0 940.7 -0.8 40
2019-04-12 13:00:00 14.5 3 Nordeste 12 Sur 0 941.2 -0.2 44
2019-04-12 12:00:00 12.8 4 Nordeste 11 Sudoeste 0 941.4 0 55
2019-04-12 11:00:00 9.3 4 Noroeste 9 Oeste 0 941.5 0.5 67
2019-04-12 10:00:00 6.3 5 Este 9 Sudeste 0 941.4 0.8 74
2019-04-12 09:00:00 3.2 4 Este 8 Sudeste 0 941.4 0.6 81
2019-04-12 08:00:00 0.8 6 Este 9 Este 0 941 0.2 87
2019-04-12 07:00:00 1.8 6 Sudeste 11 Sudeste 0 940.6 -0.2 85
2019-04-12 06:00:00 2.1 9 Sudeste 14 Sudeste 0 940.8 0 86
2019-04-12 05:00:00 1.7 9 Este 11 Este 0 940.8 0 87
2019-04-12 04:00:00 2.2 4 Este 9 Sudeste 0 940.8 -0.1 85
2019-04-12 03:00:00 4.3 3 Oeste 8 Norte 0 940.8 -0.2 78
2019-04-12 02:00:00 4.8 5 Norte 21 Oeste 0 940.8 -0.2 75
2019-04-12 01:00:00 5.6 4 Sudeste 6 Sudeste 0 940.9 0.4 72
2019-04-12 00:00:00 6.9 4 Sur 11 Nordeste 0 941 0.8 66
2019-04-11 23:00:00 8 9 Nordeste 16 Nordeste 0 941 1.1 64
2019-04-11 22:00:00 9 11 Norte 12 Norte 0 940.5 0.5 56
2019-04-11 21:00:00 11.4 9 Norte 19 Nordeste 0 940.2 0.2 47
2019-04-11 20:00:00 14.3 14 Norte 26 Nordeste 0 939.9 -0.3 34
2019-04-11 19:00:00 14.5 13 Norte 26 Norte 0 940 -0.5 34
2019-04-11 18:00:00 14.5 18 Nordeste 28 Nordeste 0 940 -0.8 36
2019-04-11 17:00:00 14.2 13 Nordeste 28 Nordeste 0 940.2 -0.9 36
2019-04-11 16:00:00 14.4 12 Norte 32 Norte 0 940.5 -1.1 34
2019-04-11 15:00:00 14 12 Nordeste 27 Norte 0 940.8 -1.1 40
2019-04-11 14:00:00 13 14 Nordeste 23 Norte 0 941.1 -0.7 42
2019-04-11 13:00:00 -- 9 Norte 18 Norte 0 941.6 0 --
2019-04-11 12:00:00 10.1 6 Norte 12 Este 0 941.9 0.6 66
2019-04-11 11:00:00 6.9 4 Este 12 Sudeste 0 941.8 1 85
2019-04-11 10:00:00 4.6 5 Sudeste 9 Sudeste 0 941.6 1.2 88
2019-04-11 09:00:00 3.9 0 Calma 5 Norte 0 941.3 0.7 90
2019-04-11 08:00:00 1.8 5 Norte 10 Norte 0 940.8 0.3 90
2019-04-11 07:00:00 2.4 6 Norte 12 Norte 0 940.4 0.2 90
2019-04-11 06:00:00 3 3 Norte 13 Norte 0 940.6 0.4 88
2019-04-11 05:00:00 3.7 9 Norte 14 Norte 0 940.5 0.3 87
2019-04-11 04:00:00 4.1 3 Noroeste 10 Noroeste 0 940.2 -0.2 87
2019-04-11 03:00:00 4.6 5 Oeste 15 Noroeste 0 940.2 -0.2 86
2019-04-11 02:00:00 5.3 9 Noroeste 14 Noroeste 0 940.2 0.1 84
2019-04-11 01:00:00 6.6 6 Norte 12 Noroeste 0 940.4 0.7 80
2019-04-11 00:00:00 7.4 8 Este 15 Este 0 940.4 1.9 75
2019-04-10 23:00:00 8 5 Sudoeste 15 Sudeste 0 940.1 2.6 72
2019-04-10 22:00:00 8.9 9 Sudeste 23 Noroeste 0 939.7 2.6 66
2019-04-10 21:00:00 9.8 16 Noroeste 44 Noroeste 0.6 938.5 1.8 66
2019-04-10 20:00:00 12.7 20 Noroeste 37 Noroeste 0 937.5 0.7 50
2019-04-10 19:00:00 14.3 18 Noroeste 48 Noroeste 0 937.1 -0.4 46
2019-04-10 18:00:00 14.5 21 Noroeste 44 Norte 0 936.7 -0.9 43
2019-04-10 17:00:00 14.6 21 Noroeste 43 Oeste 0 936.8 -0.9 44
2019-04-10 16:00:00 12.9 14 Noroeste 35 Noroeste 0 937.5 -0.5 48
2019-04-10 15:00:00 12.7 17 Noroeste 38 Norte 0 937.6 -0.5 49
2019-04-10 14:00:00 12.7 18 Noroeste 38 Norte 0 937.7 -0.4 48
2019-04-10 13:00:00 11.5 17 Noroeste 33 Noroeste 0 938 0.1 50
2019-04-10 12:00:00 9.7 19 Noroeste 40 Oeste 0 938.1 0.6 65
2019-04-10 11:00:00 9.1 18 Noroeste 33 Noroeste 0 938.1 1.1 69
2019-04-10 10:00:00 7.2 10 Oeste 20 Oeste 0 937.9 1.1 83
2019-04-10 09:00:00 6.2 10 Oeste 21 Oeste 0 937.5 0.9 83
2019-04-10 08:00:00 6 14 Oeste 26 Oeste 0 937 0.2 83
2019-04-10 07:00:00 6 11 Oeste 22 Sudoeste 0 936.8 0 83
2019-04-10 06:00:00 5.9 7 Oeste 16 Oeste 0 936.6 -0.4 83
2019-04-10 05:00:00 5.7 11 Oeste 24 Oeste 0 936.8 -0.3 84
2019-04-10 04:00:00 5.4 10 Oeste 24 Oeste 0 936.8 -0.4 84
2019-04-10 03:00:00 6.2 10 Oeste 30 Oeste 0 937 -0.1 82
2019-04-10 02:00:00 6.3 12 Oeste 19 Oeste 0 937.1 0.2 82
2019-04-10 01:00:00 6.5 8 Oeste 22 Oeste 0 937.2 0.8 84
2019-04-10 00:00:00 6.5 13 Oeste 25 Oeste 0 937.1 1.3 83
2019-04-09 23:00:00 6.7 13 Oeste 29 Oeste 0 936.9 1.7 79
2019-04-09 22:00:00 7.4 17 Oeste 39 Oeste 0 936.4 1.6 76
2019-04-09 21:00:00 8.2 21 Oeste 48 Oeste 0 935.8 0.8 72
2019-04-09 20:00:00 9.6 23 Oeste 49 Oeste 0 935.2 0.6 66
2019-04-09 19:00:00 10.9 23 Oeste 48 Oeste 0.2 934.8 -0.2 61
2019-04-09 18:00:00 10.6 28 Oeste 52 Oeste 0.2 935 0 65
2019-04-09 17:00:00 13.5 19 Oeste 48 Oeste 0 934.6 -0.6 46
2019-04-09 16:00:00 10.5 27 Oeste 50 Oeste 0.2 935 -0.4 56
2019-04-09 15:00:00 10.4 19 Noroeste 40 Noroeste 0 935 -0.5 64
2019-04-09 14:00:00 9.8 13 Oeste 26 Oeste 0.6 935.2 -0.2 71
2019-04-09 13:00:00 8.6 11 Oeste 32 Oeste 0 935.4 0.7 74
2019-04-09 12:00:00 7.8 17 Oeste 31 Oeste 0.4 935.5 1.1 79
2019-04-09 11:00:00 5.7 10 Oeste 46 Sudoeste 2.6 935.4 1.4 87
2019-04-09 10:00:00 6.3 9 Sudoeste 21 Sudoeste 0.8 934.7 0.7 86
2019-04-09 09:00:00 6 10 Sudoeste 19 Sudoeste 0.2 934.4 0.1 86
2019-04-09 08:00:00 5.9 8 Sur 17 Sudoeste 0 934 -0.4 85
2019-04-09 07:00:00 5.7 10 Sudoeste 18 Sudoeste 0 934 -0.7 85
2019-04-09 06:00:00 5.4 6 Sudoeste 13 Sudoeste 0 934.3 -0.7 85
2019-04-09 05:00:00 4.8 7 Sur 12 Sur 0 934.4 -0.9 86
2019-04-09 04:00:00 4.5 7 Sur 13 Sur 0 934.7 -0.5 85
2019-04-09 03:00:00 3.8 7 Sudeste 12 Sur 0 935 -0.5 85
2019-04-09 02:00:00 4.8 6 Sur 11 Sudoeste 0 935.3 -0.1 81
2019-04-09 01:00:00 5.7 6 Sur 11 Sudeste 0 935.2 0.3 80
2019-04-09 00:00:00 6.5 3 Sur 8 Sudeste 0 935.5 1.2 79
2019-04-08 23:00:00 6.8 8 Oeste 13 Oeste 0 935.4 1.1 76
2019-04-08 22:00:00 7.1 10 Oeste 18 Oeste 0 934.9 0.5 73
2019-04-08 21:00:00 8.5 14 Oeste 32 Oeste 0 934.3 -0.5 68
2019-04-08 20:00:00 9.2 18 Oeste 32 Oeste 0.8 934.3 -0.3 69
2019-04-08 19:00:00 10 9 Sur 15 Sudoeste 0.2 934.4 0.1 72
2019-04-08 18:00:00 8.7 11 Oeste 34 Oeste 0.4 934.8 0.2 81
2019-04-08 17:00:00 9.7 19 Noroeste 48 Noroeste 0 934.6 -0.3 67
2019-04-08 16:00:00 13.8 16 Oeste 33 Oeste 0 934.3 -0.8 45
2019-04-08 15:00:00 14.6 14 Oeste 32 Oeste 0 934.6 -0.9 37
2019-04-08 14:00:00 13.4 17 Oeste 33 Noroeste 0 934.9 -0.2 41
2019-04-08 13:00:00 12.4 17 Oeste 31 Noroeste 0 935.1 0.2 49
2019-04-08 12:00:00 11.2 14 Oeste 28 Oeste 0 935.5 0.8 57
2019-04-08 11:00:00 9.5 14 Oeste 24 Oeste 0 935.1 1.1 71
2019-04-08 10:00:00 7.8 9 Oeste 19 Oeste 0.2 934.9 1.5 84
2019-04-08 09:00:00 7.5 5 Sudoeste 26 Oeste 0 934.7 1.6 82
2019-04-08 08:00:00 5.9 4 Sur 15 Oeste 0 934 1 86
2019-04-08 07:00:00 7.5 8 Oeste 24 Oeste 0 933.4 0.7 86
2019-04-08 06:00:00 8 17 Oeste 38 Oeste 0 933.1 0.5 86
2019-04-08 05:00:00 8.7 10 Oeste 24 Oeste 0 933 0.4 88
2019-04-08 04:00:00 9 10 Oeste 23 Oeste 2.6 932.7 -0.5 89
2019-04-08 03:00:00 9.5 10 Sur 27 Sudoeste 0.2 932.6 -0.3 83
2019-04-08 02:00:00 9.4 9 Sur 19 Sur 0 932.6 -0.7 82
2019-04-08 01:00:00 9.5 8 Sur 29 Sur 0 933.2 -0.3 79
2019-04-08 00:00:00 9.7 16 Sudoeste 31 Sudoeste 0 932.9 0 75
2019-04-07 23:00:00 9.5 10 Sur 24 Sudoeste 0 933.3 0.7 80
2019-04-07 22:00:00 9.5 13 Sudoeste 29 Sudoeste 0.2 933.5 1.1 82
2019-04-07 21:00:00 9.8 14 Sudoeste 33 Sur 0 932.9 0.4 79
2019-04-07 20:00:00 9.7 17 Sur 33 Sur 0 932.6 -0.1 79
2019-04-07 19:00:00 9.8 20 Sur 33 Sur 0 932.4 -0.6 78
2019-04-07 18:00:00 9.1 15 Sur 34 Sur 0.2 932.5 -0.5 81
2019-04-07 17:00:00 8.9 13 Sur 26 Sur 0.4 932.7 -0.4 83
2019-04-07 16:00:00 8.8 10 Sur 29 Sudoeste 0.2 933 -0.4 79
2019-04-07 15:00:00 10.2 19 Sudoeste 36 Sudoeste 0 933 -0.3 61
2019-04-07 14:00:00 10.3 17 Sudoeste 29 Sudoeste 0 933.1 0.1 61
2019-04-07 13:00:00 9.3 12 Sur 21 Sur 0 933.4 0.6 68
2019-04-07 12:00:00 7.6 9 Sur 14 Sur 0 933.3 1 75
2019-04-07 11:00:00 6 7 Sur 18 Sudoeste 0.2 933 1.4 86
2019-04-07 10:00:00 5.6 8 Sur 14 Sudoeste 0.2 932.8 1.9 87
2019-04-07 09:00:00 5.1 7 Sudoeste 12 Sudoeste 0 932.3 1.9 83
2019-04-07 08:00:00 4.9 6 Oeste 13 Sur 0 931.6 1.4 83
2019-04-07 07:00:00 4.7 3 Sudoeste 9 Sudoeste 0 930.9 1.1 83
2019-04-07 06:00:00 4.6 5 Sudoeste 17 Oeste 0 930.4 0.6 83
2019-04-07 05:00:00 4.7 5 Sudoeste 18 Sudoeste 0 930.2 0.7 84
2019-04-07 04:00:00 4.7 7 Oeste 22 Oeste 0 929.8 0.6 84
2019-04-07 03:00:00 4.7 13 Oeste 26 Oeste 0 929.8 0.8 83
2019-04-07 02:00:00 4.5 5 Sudoeste 12 Oeste 0 929.5 0.7 84
2019-04-07 01:00:00 4.7 2 Oeste 11 Sudoeste 0 929.2 0.8 82
2019-04-07 00:00:00 4.5 6 Sudoeste 24 Sudoeste 0 929 1.1 83
2019-04-06 23:00:00 4.9 16 Oeste 30 Oeste 0 928.8 1.3 80
2019-04-06 22:00:00 5.2 9 Sudoeste 24 Sudoeste 0 928.4 1.8 75
2019-04-06 21:00:00 5.4 15 Oeste 43 Oeste 0 927.9 2 73
2019-04-06 20:00:00 7.3 30 Oeste 51 Oeste 0 927.5 2.3 64
2019-04-06 19:00:00 7.7 24 Oeste 48 Oeste 0 926.6 1.3 61
2019-04-06 18:00:00 8.8 28 Oeste 64 Oeste 0 925.9 0.7 58
2019-04-06 17:00:00 9.2 32 Oeste 58 Oeste 0 925.2 -0.4 55
2019-04-06 16:00:00 7.4 24 Oeste 63 Oeste 0.8 925.3 0.1 79
2019-04-06 15:00:00 8.7 22 Oeste 44 Oeste 0 925.2 -0.1 60
2019-04-06 14:00:00 6.9 21 Oeste 49 Sudoeste 0 925.6 0.4 71
2019-04-06 13:00:00 6.5 22 Sudoeste 44 Sudoeste 0.2 925.2 0.5 79
2019-04-06 12:00:00 6.1 21 Sudoeste 39 Sudoeste 0.2 925.3 0.4 79
2019-04-06 11:00:00 4.1 16 Sudoeste 34 Sudoeste 0 925.2 0.7 86
2019-04-06 10:00:00 2.1 10 Sur 39 Sudoeste 1.2 924.7 0.6 90
2019-04-06 09:00:00 2.1 9 Sudoeste 26 Sudoeste 0 924.9 1.1 88
2019-04-06 08:00:00 2.5 12 Sudoeste 37 Sudoeste 0.2 924.5 0.2 87
2019-04-06 07:00:00 3.7 9 Sudoeste 27 Sudoeste 0.8 924.1 -0.3 88
2019-04-06 06:00:00 3.7 12 Sur 22 Sudoeste 0 923.8 -0.9 85
2019-04-06 05:00:00 3.4 11 Sudoeste 29 Sudoeste 0 924.3 -0.8 82
2019-04-06 04:00:00 3.5 13 Sudoeste 24 Sudoeste 0 924.4 -0.7 81
2019-04-06 03:00:00 3.6 10 Sur 16 Sur 0 924.7 -0.2 81
2019-04-06 02:00:00 3.4 7 Sur 14 Sudoeste 0 925.1 0.5 83
2019-04-06 01:00:00 3.6 4 Sudoeste 10 Sudoeste 0 925.1 1.2 83
2019-04-06 00:00:00 3.5 4 Sudoeste 13 Sudoeste 0 924.9 2 81
2019-04-05 23:00:00 3 5 Sudoeste 18 Oeste 0 924.6 2.6 81
2019-04-05 22:00:00 3.4 11 Oeste 30 Oeste 0 923.9 2.4 79
2019-04-05 21:00:00 4.2 18 Oeste 48 Oeste 0 922.9 1.4 73
2019-04-05 20:00:00 6 24 Oeste 51 Oeste 0 922 1.1 68
2019-04-05 19:00:00 7.1 11 Oeste 29 Sudoeste 0 921.5 0.7 75
2019-04-05 18:00:00 5.4 8 Noroeste 41 Oeste 1 921.5 0.2 79
2019-04-05 17:00:00 8 21 Oeste 47 Oeste 0 920.9 -0.8 59
2019-04-05 16:00:00 10.2 22 Oeste 43 Oeste 0 920.8 -1.2 48
2019-04-05 15:00:00 8.3 10 Oeste 25 Oeste 0.2 921.3 -0.3 60
2019-04-05 14:00:00 5.4 7 Sudeste 18 Sudeste 0 921.7 0.6 74
2019-04-05 13:00:00 3.7 10 Sudoeste 27 Oeste 0 922 1.3 84
2019-04-05 12:00:00 4.1 15 Noroeste 30 Noroeste 0 921.6 1 82
2019-04-05 11:00:00 4.8 12 Sur 20 Sur 0 921.1 1.1 81
2019-04-05 10:00:00 4.2 4 Sudoeste 9 Noroeste 0 920.7 0.7 77
2019-04-05 09:00:00 3.3 0 Calma 8 Este 0 920.6 0.7 86
2019-04-05 08:00:00 2.7 5 Sudeste 12 Sur 0 920 -0.3 86
2019-04-05 07:00:00 3.1 7 Oeste 13 Oeste 0 920 -0.2 85
2019-04-05 06:00:00 3.4 7 Oeste 30 Oeste 0.4 919.9 -0.5 87
2019-04-05 05:00:00 3.9 19 Oeste 41 Oeste 0.6 920.3 -0.5 86
2019-04-05 04:00:00 5.1 10 Sur 28 Sur 0.2 920.2 -1 88
2019-04-05 03:00:00 5.3 14 Sur 25 Sur 0 920.4 -1.3 85
2019-04-05 02:00:00 4.8 11 Sur 28 Sur 0 920.8 -1.6 84
2019-04-05 01:00:00 4.8 13 Sur 24 Sur 0 921.2 -1.5 86
2019-04-05 00:00:00 4.7 13 Sur 24 Sur 0 921.7 -1.5 85
2019-04-04 23:00:00 4.6 8 Sur 24 Sur 0 922.4 -1 86
2019-04-04 22:00:00 4.7 10 Sur 20 Sudoeste 0.6 922.7 -0.7 86
2019-04-04 21:00:00 5.3 13 Sudoeste 28 Sudoeste 0.8 923.2 -0.3 81
2019-04-04 20:00:00 7.5 12 Sudoeste 28 Noroeste 0 923.4 -0.2 64
2019-04-04 19:00:00 8.7 16 Noroeste 32 Oeste 0 923.4 -1.1 46
2019-04-04 18:00:00 10.2 19 Noroeste 38 Noroeste 0 923.5 -2.2 41
2019-04-04 17:00:00 12.7 21 Sudoeste 37 Sudoeste 0 923.6 -3.3 24
2019-04-04 16:00:00 13.5 11 Sudoeste 31 Oeste 0 924.5 -3.2 25
2019-04-04 15:00:00 12 10 Oeste 27 Sudoeste 0 925.7 -2.6 28
2019-04-04 14:00:00 10.9 8 Oeste 27 Oeste 0 926.9 -1.5 37
2019-04-04 13:00:00 9.3 9 Noroeste 23 Noroeste 0 927.7 -0.9 41
2019-04-04 12:00:00 7.4 7 Sudeste 19 Sur 0 928.3 -0.3 50
2019-04-04 11:00:00 6 4 Sudoeste 15 Sudoeste 0 928.4 0.3 56
2019-04-04 10:00:00 3.5 3 Sudeste 9 Sudeste 0 928.6 0.7 65
2019-04-04 09:00:00 0.1 2 Sudoeste 5 Sudeste 0 928.6 0.5 78
2019-04-04 08:00:00 -2.8 4 Sur 11 Este 0 928.1 0 84
2019-04-04 07:00:00 -2.4 8 Sudeste 11 Sudeste 0 927.9 -0.7 83
2019-04-04 06:00:00 -2.1 7 Sudeste 10 Este 0 928.1 -0.9 82
2019-04-04 05:00:00 0.1 4 Norte 14 Noroeste 0 928.1 -1.4 74
2019-04-04 04:00:00 1.1 5 Noroeste 15 Norte 0 928.6 -1.3 69
2019-04-04 03:00:00 1.6 8 Noroeste 20 Norte 0 929 -0.9 66
2019-04-04 02:00:00 2.5 10 Noroeste 18 Noroeste 0 929.5 -0.5 61
2019-04-04 01:00:00 3.4 9 Noroeste 26 Norte 0 929.9 0.6 57
2019-04-04 00:00:00 4.3 16 Noroeste 24 Norte 0 929.9 1.1 55
2019-04-03 23:00:00 5.1 13 Norte 26 Norte 0 930 1.2 53
2019-04-03 22:00:00 6.4 17 Noroeste 27 Noroeste 0 929.3 0.6 47
2019-04-03 21:00:00 7.8 15 Norte 45 Norte 0 928.8 0 37
2019-04-03 20:00:00 10.1 23 Norte 52 Norte 0 928.8 -0.6 33
2019-04-03 19:00:00 11 26 Norte 48 Norte 0 928.7 -1.3 30
2019-04-03 18:00:00 11.4 26 Norte 46 Norte 0 928.8 -1.7 31
2019-04-03 17:00:00 11.9 26 Noroeste 60 Norte 0 929.4 -1.7 30
2019-04-03 16:00:00 11.7 27 Noroeste 51 Norte 0 930 -1.8 31
2019-04-03 15:00:00 11.8 22 Noroeste 48 Norte 0 930.5 -1.8 34
2019-04-03 14:00:00 10.9 18 Noroeste 44 Norte 0 931.1 -1.1 40
2019-04-03 13:00:00 9.4 22 Noroeste 46 Norte 0 931.8 -0.7 43
2019-04-03 12:00:00 9.1 19 Noroeste 42 Norte 0 932.3 -0.5 49
2019-04-03 11:00:00 7.6 17 Noroeste 30 Noroeste 0 932.2 -0.6 55
2019-04-03 10:00:00 7.2 12 Noroeste 23 Noroeste 0 932.5 -0.5 58
2019-04-03 09:00:00 5.3 8 Noroeste 21 Norte 0 932.8 -0.4 75
2019-04-03 08:00:00 4.9 6 Noroeste 10 Noroeste 0 932.8 -0.9 88
2019-04-03 07:00:00 3.9 3 Sudoeste 6 Oeste 0 933 -1.3 89
2019-04-03 06:00:00 3.9 0 Calma 7 Sudoeste 0 933.2 -1.5 88
2019-04-03 05:00:00 4.5 2 Sudeste 12 Noroeste 0 933.7 -1.6 86
2019-04-03 04:00:00 5 8 Noroeste 13 Noroeste 0 934.3 -1.4 86
2019-04-03 03:00:00 5.6 5 Noroeste 9 Oeste 0 934.7 -1.1 83
2019-04-03 02:00:00 6.3 2 Sudeste 10 Este 0 935.3 -0.5 78
2019-04-03 01:00:00 8 4 Sudeste 10 Oeste 0 935.7 0.3 73
2019-04-03 00:00:00 9.5 6 Oeste 26 Noroeste 0 935.8 1.1 67
2019-04-02 23:00:00 10.9 14 Noroeste 26 Noroeste 0 935.8 1 63
2019-04-02 22:00:00 12.1 13 Noroeste 25 Oeste 0 935.4 0.7 58
2019-04-02 21:00:00 14.1 17 Oeste 34 Noroeste 0 934.7 -0.3 47
2019-04-02 20:00:00 16.8 16 Oeste 33 Oeste 0 934.8 -0.7 34
2019-04-02 19:00:00 16.4 14 Oeste 31 Noroeste 0 934.7 -1.2 32
2019-04-02 18:00:00 17.9 16 Noroeste 35 Noroeste 0 935 -1.3 26
2019-04-02 17:00:00 18.8 17 Noroeste 37 Noroeste 0 935.5 -1.6 23
2019-04-02 16:00:00 18.5 16 Noroeste 29 Oeste 0 935.9 -1.7 29
2019-04-02 15:00:00 18.4 14 Oeste 29 Noroeste 0 936.3 -1.8 29
2019-04-02 14:00:00 16.9 13 Noroeste 29 Noroeste 0 937.1 -0.9 33
2019-04-02 13:00:00 15.8 6 Oeste 18 Oeste 0 937.6 -0.2 49
2019-04-02 12:00:00 13 4 Oeste 11 Sudoeste 0 938.1 0.5 62
2019-04-02 11:00:00 11.6 5 Sudoeste 11 Oeste 0 938 0.9 67
2019-04-02 10:00:00 10.1 5 Este 11 Este 0 937.8 1.1 75
2019-04-02 09:00:00 7.2 3 Sudeste 6 Sudeste 0 937.6 0.8 86
2019-04-02 08:00:00 6.9 5 Sudeste 8 Este 0 937.1 0 87
2019-04-02 07:00:00 6.6 5 Este 9 Este 0 936.7 -0.6 87
2019-04-02 06:00:00 7 7 Este 10 Este 0 936.8 -0.5 87
2019-04-02 05:00:00 7.2 4 Sudeste 9 Sudeste 0 937.1 0 86
2019-04-02 04:00:00 7 5 Este 12 Sudeste 0 937.3 0.2 86
2019-04-02 03:00:00 7.7 6 Oeste 11 Norte 0 937.3 0.1 80
2019-04-02 02:00:00 8.9 8 Noroeste 10 Noroeste 0 937.1 -0.2 78
2019-04-02 01:00:00 9.8 4 Sudeste 8 Sudeste 0 937.1 0.3 76
2019-04-02 00:00:00 10.5 3 Sur 8 Sur 0 937.2 1.7 71
2019-04-01 23:00:00 11.3 4 Sudeste 13 Norte 0 937.3 2.4 67
2019-04-01 22:00:00 11.2 5 Este 13 Sudeste 0 936.8 2.2 69
2019-04-01 21:00:00 11.7 5 Sudeste 8 Sudeste 0 935.5 0.9 64
2019-04-01 20:00:00 12.6 5 Sudoeste 15 Oeste 0 934.9 0.4 56
2019-04-01 19:00:00 13.2 9 Sudoeste 20 Sudoeste 0 934.6 0.5 54
2019-04-01 18:00:00 13.9 11 Sudoeste 24 Sudoeste 0 934.6 0.1 52
2019-04-01 17:00:00 14.1 13 Sur 40 Sudeste 0 934.5 -0.5 52
2019-04-01 16:00:00 17.9 9 Sur 23 Sudeste 0 934.1 -1.4 33
2019-04-01 15:00:00 17.8 8 Sudeste 19 Sudeste 0 934.5 -1.3 34
2019-04-01 14:00:00 16.6 7 Este 17 Este 0 935 -0.4 43
2019-04-01 13:00:00 15.2 5 Nordeste 17 Este 0 935.5 0.5 47
2019-04-01 12:00:00 13.1 6 Sudeste 14 Este 0 935.8 1 55
2019-04-01 11:00:00 11.8 8 Este 14 Sudeste 0 935.4 1.3 64
2019-04-01 10:00:00 9.8 2 Nordeste 10 Noroeste 0 935 1.2 72
2019-04-01 09:00:00 5.5 5 Oeste 8 Oeste 0 934.8 1.3 84
2019-04-01 08:00:00 5.3 5 Este 9 Este 0 934.1 0.4 84
2019-04-01 07:00:00 6.1 5 Este 6 Este 0 933.8 0.2 83
2019-04-01 06:00:00 6.4 4 Sudeste 7 Sudeste 0 933.5 -0.2 80
2019-04-01 05:00:00 7.2 4 Norte 7 Sudoeste 0 933.7 0 79
2019-04-01 04:00:00 7.9 5 Sudoeste 7 Sudoeste 0 933.6 0.1 77
2019-04-01 03:00:00 7.9 3 Sur 9 Sudoeste 0 933.7 0.2 76
2019-04-01 02:00:00 8.3 4 Sur 12 Sudeste 0 933.7 0.4 74
2019-04-01 01:00:00 9.7 6 Sudoeste 12 Sur 0 933.5 0.9 66
2019-04-01 00:00:00 10 7 Sudoeste 13 Sudoeste 0 933.5 1.6 63
2019-03-31 23:00:00 9.3 7 Este 10 Sudeste 0 933.3 1.6 64
2019-03-31 22:00:00 11.8 3 Nordeste 13 Sudeste 0 932.6 0.7 58
2019-03-31 21:00:00 14 4 Sudeste 12 Oeste 0 931.9 -0.2 46
2019-03-31 20:00:00 16.2 5 Sudoeste 14 Sur 0 931.7 -0.7 36
2019-03-31 19:00:00 16.4 12 Sur 31 Sur 0 931.9 -0.3 34
2019-03-31 18:00:00 16.9 21 Sur 39 Este 0 932.1 -0.8 35
2019-03-31 17:00:00 16.1 24 Este 47 Este 0 932.4 -1.3 36
2019-03-31 16:00:00 17.9 17 Este 28 Sudeste 0 932.2 -2.1 32
2019-03-31 15:00:00 19.7 8 Sudeste 20 Este 0 932.9 -1.9 23
2019-03-31 14:00:00 18.2 7 Este 16 Nordeste 0 933.7 -1.1 30
2019-03-31 13:00:00 16.9 4 Nordeste 12 Oeste 0 934.3 -0.3 37
2019-03-31 12:00:00 12.6 3 Nordeste 9 Sudeste 0 934.8 0.3 49
2019-03-31 11:00:00 9.1 5 Este 9 Este 0 934.8 0.6 58
2019-03-31 10:00:00 6 3 Este 6 Este 0 934.6 0.5 67
2019-03-31 09:00:00 3.4 5 Este 7 Este 0 934.5 0.1 81
2019-03-31 08:00:00 2.3 4 Sudeste 10 Sudeste 0 934.2 -0.8 78
2019-03-31 07:00:00 2.6 8 Este 11 Este 0 934.1 -1.4 77
2019-03-31 06:00:00 3.5 4 Sudeste 8 Nordeste 0 934.4 -1.5 74
2019-03-31 05:00:00 4.6 8 Nordeste 11 Nordeste 0 935 -1.3 69
2019-03-31 03:00:00 6 8 Este 10 Este 0 935.9 -1 65
2019-03-31 01:00:00 8.2 4 Este 18 Noroeste 0 936.3 -0.9 55
2019-03-31 00:00:00 8.8 8 Sudeste 10 Sudeste 0 936.7 0 53
2019-03-30 23:00:00 10.7 5 Sudeste 11 Sur 0 936.9 0.5 46
2019-03-30 22:00:00 12.9 7 Sur 23 Sudoeste 0 937.2 1.1 36
2019-03-30 21:00:00 14.5 15 Sudoeste 27 Sudoeste 0 936.7 0.8 32
2019-03-30 20:00:00 15 5 Sur 14 Sur 0 936.4 0.4 33
2019-03-30 19:00:00 16.7 6 Norte 9 Norte 0 936.1 -0.4 26
2019-03-30 18:00:00 18.1 7 Norte 18 Nordeste 0 935.9 -1.3 21
2019-03-30 17:00:00 18.2 10 Nordeste 26 Nordeste 0 936 -2.1 22
2019-03-30 16:00:00 19.4 5 Sudeste 17 Sur 0 936.5 -2.4 19
2019-03-30 15:00:00 20.7 6 Sur 18 Sudoeste 0 937.2 -2.4 17
2019-03-30 14:00:00 19.9 7 Oeste 20 Sudeste 0 938.1 -2.1 20
2019-03-30 13:00:00 18.8 10 Sudeste 19 Sudeste 0 938.9 -1.5 20
2019-03-30 12:00:00 17.7 6 Sur 17 Sur 0 939.6 -0.9 26
2019-03-30 11:00:00 15.2 5 Sudeste 13 Sudoeste 0 940.2 -0.2 35
2019-03-30 10:00:00 11.3 5 Sur 10 Este 0 940.4 0.2 42
2019-03-30 09:00:00 6 6 Este 11 Este 0 940.5 0.5 61
2019-03-30 08:00:00 1.8 6 Sudeste 10 Este 0 940.4 0.2 77
2019-03-30 07:00:00 0.7 5 Sudeste 9 Sudeste 0 940.2 -0.3 79
2019-03-30 06:00:00 0.7 5 Sudeste 9 Sudeste 0 940 -0.6 78
2019-03-30 05:00:00 1.9 7 Sudeste 9 Sudeste 0 940.2 -0.7 73
2019-03-30 04:00:00 2.7 4 Este 7 Este 0 940.5 -0.6 68
2019-03-30 03:00:00 3.6 7 Este 9 Este 0 940.6 -0.8 64
2019-03-30 02:00:00 5 4 Nordeste 8 Este 0 940.9 -0.6 60
2019-03-30 01:00:00 5 6 Este 10 Este 0 941.1 -0.4 58
2019-03-30 00:00:00 6.9 6 Este 10 Sudeste 0 941.4 0.2 52
2019-03-29 23:00:00 7.7 8 Sudeste 10 Sudeste 0 941.5 0.6 51
2019-03-29 22:00:00 8.8 4 Sur 10 Sudoeste 0 941.5 1 45
2019-03-29 21:00:00 12 5 Sur 14 Sur 0 941.2 1 32
2019-03-29 20:00:00 13.4 8 Sur 17 Sur 0 940.9 0.5 32
2019-03-29 19:00:00 16.6 11 Sur 23 Sur 0 940.5 -0.1 26
2019-03-29 18:00:00 19.4 3 Noroeste 15 Norte 0 940.2 -1.2 19
2019-03-29 17:00:00 17.7 5 Norte 25 Nordeste 0 940.4 -1.6 22
2019-03-29 16:00:00 19.5 8 Nordeste 21 Este 0 940.6 -2 19
2019-03-29 15:00:00 19.2 6 Nordeste 22 Sudeste 0 941.4 -1.9 18
2019-03-29 14:00:00 19 11 Sudeste 26 Sur 0 942 -1.8 19
2019-03-29 13:00:00 18.1 11 Sur 27 Sudoeste 0 942.6 -1.6 19
2019-03-29 12:00:00 16.9 8 Sudoeste 17 Sudoeste 0 943.3 -0.8 24
2019-03-29 11:00:00 13.2 6 Oeste 11 Oeste 0 943.8 -0.2 35
2019-03-29 10:00:00 9.6 3 Este 9 Sudeste 0 944.2 0.5 53
2019-03-29 09:00:00 5.7 2 Este 6 Nordeste 0 944.1 0.7 65
2019-03-29 08:00:00 0.8 2 Sur 9 Este 0 944 0.7 83
2019-03-29 07:00:00 -0.4 3 Sudeste 5 Noroeste 0 943.7 0.4 81
2019-03-29 06:00:00 1.2 5 Noroeste 10 Norte 0 943.4 -0.1 79
2019-03-29 05:00:00 1.3 3 Noroeste 9 Este 0 943.3 -0.5 80
2019-03-29 04:00:00 2 7 Sudeste 10 Este 0 943.3 -0.6 75
2019-03-29 03:00:00 3.2 5 Sudeste 8 Este 0 943.5 -0.6 69
2019-03-29 02:00:00 3.5 6 Este 9 Sudeste 0 943.8 -0.4 67
2019-03-29 01:00:00 6.1 4 Este 6 Sudeste 0 943.9 -0.3 61
2019-03-29 00:00:00 6.1 7 Sudeste 9 Sudeste 0 944.1 0.3 60
2019-03-28 23:00:00 8.3 0 Calma 10 Sur 0 944.2 0.9 49
2019-03-28 22:00:00 9.6 6 Sur 13 Norte 0 944.2 0.9 42
2019-03-28 21:00:00 10.9 10 Norte 13 Norte 0 943.8 0.6 39
2019-03-28 20:00:00 14.2 9 Norte 10 Norte 0 943.3 -0.2 28
2019-03-28 19:00:00 17.1 9 Nordeste 20 Nordeste 0 943.3 -0.7 25
2019-03-28 18:00:00 18.1 13 Nordeste 22 Nordeste 0 943.2 -1.4 24
2019-03-28 17:00:00 18.7 7 Este 20 Este 0 943.5 -2 21
2019-03-28 16:00:00 19.4 4 Este 22 Nordeste 0 944 -2.1 21
2019-03-28 15:00:00 19 6 Norte 17 Noroeste 0 944.6 -2 22
2019-03-28 14:00:00 18 5 Este 19 Norte 0 945.5 -1.7 25
2019-03-28 13:00:00 16.1 9 Noroeste 22 Norte 0 946.1 -1 27
2019-03-28 12:00:00 13.6 6 Noroeste 16 Oeste 0 946.6 -0.5 31
2019-03-28 11:00:00 11.1 4 Oeste 13 Sudeste 0 947.2 0.4 35
2019-03-28 10:00:00 9 4 Este 11 Sur 0 947.1 0.9 36
2019-03-28 09:00:00 6.3 6 Sur 9 Sur 0 947.1 1.4 45
2019-03-28 08:00:00 4.2 3 Este 10 Noroeste 0 946.8 1.2 44
2019-03-28 07:00:00 3.4 9 Nordeste 21 Este 0 946.2 0.8 45
2019-03-28 06:00:00 4.4 13 Este 20 Este 0 945.7 0.4 40
2019-03-28 05:00:00 5.1 10 Este 24 Este 0 945.6 0.3 39
2019-03-28 04:00:00 6.1 10 Este 36 Nordeste 0 945.4 0.1 34
2019-03-28 03:00:00 7.7 20 Nordeste 36 Nordeste 0 945.3 0.1 32
2019-03-28 02:00:00 8.7 13 Nordeste 25 Este 0 945.3 0.7 32
2019-03-28 01:00:00 9.4 17 Este 29 Este 0 945.3 1 30
2019-03-28 00:00:00 9.4 16 Este 30 Nordeste 0 945.2 1.4 29
2019-03-27 23:00:00 10.9 22 Nordeste 32 Nordeste 0 944.6 1.4 28
2019-03-27 22:00:00 11 14 Este 23 Nordeste 0 944.3 1.3 30
2019-03-27 21:00:00 10.3 13 Norte 17 Norte 0 943.8 1 36
2019-03-27 20:00:00 14.5 13 Nordeste 21 Nordeste 0 943.2 0.4 24
2019-03-27 19:00:00 17 18 Nordeste 35 Nordeste 0 943 -0.1 19
2019-03-27 18:00:00 18.1 20 Nordeste 32 Nordeste 0 942.8 -0.6 19
2019-03-27 17:00:00 18.6 19 Nordeste 30 Nordeste 0 942.8 -1.4 22
2019-03-27 16:00:00 18.3 15 Nordeste 30 Nordeste 0 943.1 -1.6 24
2019-03-27 15:00:00 18 14 Norte 30 Nordeste 0 943.4 -1.5 24
2019-03-27 14:00:00 16.6 12 Norte 24 Norte 0 944.2 -0.8 28
2019-03-27 13:00:00 15 6 Noroeste 12 Oeste 0 944.7 -0.3 30
2019-03-27 12:00:00 13.5 6 Sur 13 Oeste 0 944.9 0 32
2019-03-27 11:00:00 10.2 5 Oeste 14 Oeste 0 945 0.6 37
2019-03-27 10:00:00 7.7 3 Este 9 Sudeste 0 945 1.3 39
2019-03-27 09:00:00 5.4 4 Sudeste 10 Sudeste 0 944.9 2.1 45
2019-03-27 08:00:00 4.1 8 Este 20 Nordeste 0 944.4 2.3 48
2019-03-27 07:00:00 3.3 15 Nordeste 23 Nordeste 0 943.7 2 51
2019-03-27 06:00:00 3.1 4 Este 17 Este 0 942.8 1.3 45
2019-03-27 05:00:00 4.5 8 Nordeste 25 Este 0 942.1 1.2 39
2019-03-27 04:00:00 5.6 16 Nordeste 29 Este 0 941.7 0.9 34
2019-03-27 03:00:00 6.7 5 Sur 50 Este 0 941.5 1 30
2019-03-27 02:00:00 8.1 29 Este 47 Este 0 940.9 0.7 29
2019-03-27 01:00:00 8.9 30 Nordeste 45 Nordeste 0 940.8 1.1 28
2019-03-27 00:00:00 10 31 Nordeste 44 Este 0 940.5 1.7 28